createdAt,value
2019-04-25T00:00:34.786Z,89.23
2019-04-25T00:01:34.776Z,90.15
2019-04-25T00:02:34.801Z,90.36
2019-04-25T00:03:34.778Z,89.27
2019-04-25T00:04:34.742Z,89.47
2019-04-25T00:05:34.731Z,89.37
2019-04-25T00:06:34.722Z,90.45
2019-04-25T00:07:34.708Z,89.23
2019-04-25T00:08:34.719Z,89.58
2019-04-25T00:09:34.686Z,90.39
2019-04-25T00:10:34.673Z,90.05
2019-04-25T00:11:34.661Z,90.15
2019-04-25T00:12:34.660Z,89.98
2019-04-25T00:13:34.665Z,90.30
2019-04-25T00:14:34.630Z,89.47
2019-04-25T00:15:34.622Z,89.27
2019-04-25T00:16:34.604Z,89.89
2019-04-25T00:17:34.594Z,89.68
2019-04-25T00:18:34.608Z,89.72
2019-04-25T00:19:34.579Z,90.23
2019-04-25T00:20:34.560Z,90.64
2019-04-25T00:21:34.553Z,90.34
2019-04-25T00:22:34.542Z,90.03
2019-04-25T00:23:34.549Z,90.54
2019-04-25T00:24:34.519Z,90.64
2019-04-25T00:25:34.504Z,90.58
2019-04-25T00:26:34.492Z,90.37
2019-04-25T00:27:34.484Z,90.28
2019-04-25T00:28:34.514Z,90.23
2019-04-25T00:29:34.462Z,90.13
2019-04-25T00:30:34.449Z,90.58
2019-04-25T00:31:34.438Z,90.07
2019-04-25T00:32:34.429Z,90.28
2019-04-25T00:33:34.413Z,90.17
2019-04-25T00:34:34.426Z,89.66
2019-04-25T00:35:34.397Z,90.83
2019-04-25T00:36:34.378Z,90.62
2019-04-25T00:37:34.368Z,90.52
2019-04-25T00:38:34.366Z,90.73
2019-04-25T00:39:34.375Z,90.32
2019-04-25T00:40:34.335Z,90.83
2019-04-25T00:41:34.324Z,90.52
2019-04-25T00:42:34.321Z,90.52
2019-04-25T00:43:34.301Z,90.56
2019-04-25T00:44:34.320Z,90.32
2019-04-25T00:45:34.282Z,90.62
2019-04-25T00:46:34.274Z,90.62
2019-04-25T00:47:34.256Z,90.73
2019-04-25T00:48:34.253Z,90.62
2019-04-25T00:49:34.261Z,90.11
2019-04-25T00:50:34.233Z,90.17
2019-04-25T00:51:34.211Z,90.89
2019-04-25T00:52:34.208Z,90.69
2019-04-25T00:53:34.188Z,90.37
2019-04-25T00:54:34.202Z,90.07
2019-04-25T00:55:34.169Z,89.45
2019-04-25T00:56:34.159Z,89.66
2019-04-25T00:57:34.145Z,88.74
2019-04-25T00:58:34.137Z,88.64
2019-04-25T00:59:34.158Z,88.64
2019-04-25T01:00:34.110Z,89.66
2019-04-25T01:01:34.101Z,89.87
2019-04-25T01:02:34.089Z,89.87
2019-04-25T01:03:34.077Z,89.97
2019-04-25T01:04:34.127Z,89.87
2019-04-25T01:05:34.054Z,90.83
2019-04-25T01:06:34.043Z,90.11
2019-04-25T01:07:34.425Z,90.17
2019-04-25T01:08:34.021Z,90.17
2019-04-25T01:09:34.016Z,90.32
2019-04-25T01:10:34.036Z,90.37
2019-04-25T01:11:33.985Z,89.90
2019-04-25T01:12:33.973Z,89.90
2019-04-25T01:13:33.965Z,89.81
2019-04-25T01:14:33.956Z,89.50
2019-04-25T01:15:33.968Z,89.81
2019-04-25T01:16:33.933Z,89.81
2019-04-25T01:17:33.922Z,90.05
2019-04-25T01:18:35.431Z,89.64
2019-04-25T01:19:34.425Z,90.05
2019-04-25T01:20:34.465Z,89.64
2019-04-25T01:21:34.048Z,90.46
2019-04-25T01:22:34.361Z,90.05
2019-04-25T01:23:33.851Z,89.99
2019-04-25T01:24:34.046Z,90.81
2019-04-25T01:25:41.027Z,90.46
2019-04-25T01:26:34.816Z,90.77
2019-04-25T01:27:33.808Z,90.71
2019-04-25T01:28:35.512Z,91.12
2019-04-25T01:29:33.790Z,91.22
2019-04-25T01:30:34.024Z,91.22
2019-04-25T01:31:33.763Z,90.61
2019-04-25T01:32:33.751Z,91.84
2019-04-25T01:33:33.740Z,91.42
2019-04-25T01:34:34.254Z,91.42
2019-04-25T01:35:33.743Z,91.53
2019-04-25T01:36:33.711Z,91.22
2019-04-25T01:37:34.111Z,91.53
2019-04-25T01:38:33.685Z,91.53
2019-04-25T01:39:34.173Z,90.55
2019-04-25T01:40:35.385Z,90.61
2019-04-25T01:41:34.209Z,90.40
2019-04-25T01:42:33.819Z,90.55
2019-04-25T01:43:35.462Z,90.55
2019-04-25T01:44:34.059Z,90.44
2019-04-25T01:45:33.926Z,90.34
2019-04-25T01:46:34.180Z,90.44
2019-04-25T01:47:33.694Z,90.34
2019-04-25T01:48:33.579Z,90.75
2019-04-25T01:49:34.000Z,90.65
2019-04-25T01:50:35.250Z,90.24
2019-04-25T01:51:33.909Z,90.18
2019-04-25T01:52:33.572Z,90.34
2019-04-25T01:53:33.945Z,90.80
2019-04-25T01:54:33.944Z,90.38
2019-04-25T01:55:33.669Z,90.38
2019-04-25T01:56:33.486Z,90.80
2019-04-25T01:57:33.782Z,90.48
2019-04-25T01:58:33.831Z,91.72
2019-04-25T01:59:33.864Z,91.51
2019-04-25T02:00:33.473Z,91.61
2019-04-25T02:01:34.077Z,91.41
2019-04-25T02:02:33.659Z,90.65
2019-04-25T02:03:34.359Z,91.67
2019-04-25T02:04:34.155Z,91.27
2019-04-25T02:05:33.801Z,90.85
2019-04-25T02:06:33.515Z,90.34
2019-04-25T02:07:33.445Z,90.85
2019-04-25T02:08:33.987Z,91.57
2019-04-25T02:09:33.766Z,91.47
2019-04-25T02:10:34.419Z,91.67
2019-04-25T02:11:34.028Z,91.47
2019-04-25T02:12:33.684Z,91.27
2019-04-25T02:13:33.664Z,91.37
2019-04-25T02:14:33.672Z,91.37
2019-04-25T02:15:33.488Z,91.74
2019-04-25T02:16:33.555Z,91.74
2019-04-25T02:17:34.064Z,91.74
2019-04-25T02:18:33.615Z,91.53
2019-04-25T02:19:33.913Z,91.22
2019-04-25T02:20:33.913Z,91.42
2019-04-25T02:21:33.531Z,91.49
2019-04-25T02:22:33.937Z,91.74
2019-04-25T02:23:34.108Z,90.81
2019-04-25T02:24:33.896Z,90.36
2019-04-25T02:25:33.323Z,90.46
2019-04-25T02:26:34.052Z,90.36
2019-04-25T02:27:34.223Z,90.56
2019-04-25T02:28:33.823Z,90.67
2019-04-25T02:29:33.344Z,90.36
2019-04-25T02:30:35.547Z,89.64
2019-04-25T02:31:34.788Z,90.01
2019-04-25T02:32:34.445Z,89.60
2019-04-25T02:33:34.003Z,89.81
2019-04-25T02:34:34.660Z,89.09
2019-04-25T02:35:35.002Z,88.57
2019-04-25T02:36:34.721Z,88.88
2019-04-25T02:37:35.045Z,88.78
2019-04-25T02:38:34.199Z,88.68
2019-04-25T02:39:36.746Z,88.78
2019-04-25T02:40:33.794Z,88.27
2019-04-25T02:41:34.359Z,88.88
2019-04-25T02:42:34.336Z,88.68
2019-04-25T02:43:34.998Z,88.23
2019-04-25T02:44:34.498Z,88.23
2019-04-25T02:45:34.405Z,88.53
2019-04-25T02:46:34.816Z,88.33
2019-04-25T02:47:34.433Z,87.82
2019-04-25T02:48:34.359Z,87.71
2019-04-25T02:49:38.792Z,86.99
2019-04-25T02:50:34.426Z,87.20
2019-04-25T02:51:34.929Z,87.57
2019-04-25T02:52:34.458Z,86.96
2019-04-25T02:53:36.523Z,87.37
2019-04-25T02:54:34.854Z,86.96
2019-04-25T02:55:36.935Z,86.34
2019-04-25T02:56:37.721Z,86.24
2019-04-25T02:57:34.571Z,85.93
2019-04-25T02:58:34.216Z,85.93
2019-04-25T02:59:36.626Z,85.83
2019-04-25T03:00:47.750Z,85.63
2019-04-25T03:01:34.303Z,85.63
2019-04-25T03:02:34.381Z,85.63
2019-04-25T03:03:34.758Z,86.04
2019-04-25T03:04:33.938Z,86.04
2019-04-25T03:05:35.127Z,85.72
2019-04-25T03:06:34.900Z,85.63
2019-04-25T03:07:34.624Z,86.04
2019-04-25T03:08:34.756Z,86.65
2019-04-25T03:09:35.041Z,85.93
2019-04-25T03:10:34.939Z,85.63
2019-04-25T03:11:34.573Z,85.22
2019-04-25T03:12:35.971Z,85.31
2019-04-25T03:13:34.290Z,85.31
2019-04-25T03:14:34.980Z,85.31
2019-04-25T03:15:34.172Z,85.31
2019-04-25T03:16:34.623Z,85.52
2019-04-25T03:17:34.289Z,85.31
2019-04-25T03:18:34.711Z,85.42
2019-04-25T03:19:34.182Z,84.09
2019-04-25T03:20:35.277Z,84.29
2019-04-25T03:21:34.986Z,84.91
2019-04-25T03:22:34.525Z,85.01
2019-04-25T03:23:35.006Z,84.09
2019-04-25T03:24:34.930Z,84.09
2019-04-25T03:25:33.567Z,83.88
2019-04-25T03:26:39.767Z,83.78
2019-04-25T03:27:34.003Z,83.88
2019-04-25T03:28:33.994Z,83.68
2019-04-25T03:29:34.142Z,84.29
2019-04-25T03:30:35.312Z,83.58
2019-04-25T03:31:34.875Z,83.27
2019-04-25T03:32:35.315Z,84.09
2019-04-25T03:33:37.798Z,84.29
2019-04-25T03:34:35.135Z,84.15
2019-04-25T03:35:33.222Z,83.88
2019-04-25T03:36:33.805Z,83.68
2019-04-25T03:37:33.032Z,84.09
2019-04-25T03:38:34.158Z,83.78
2019-04-25T03:39:33.578Z,84.29
2019-04-25T03:40:33.970Z,83.98
2019-04-25T03:41:34.014Z,83.98
2019-04-25T03:42:33.804Z,83.17
2019-04-25T03:43:33.263Z,83.78
2019-04-25T03:44:33.781Z,84.19
2019-04-25T03:45:33.288Z,84.09
2019-04-25T03:46:33.392Z,83.47
2019-04-25T03:47:33.240Z,83.37
2019-04-25T03:48:35.175Z,83.68
2019-04-25T03:49:33.686Z,83.58
2019-04-25T03:50:32.202Z,84.09
2019-04-25T03:51:33.691Z,83.78
2019-04-25T03:52:33.049Z,83.37
2019-04-25T03:53:33.713Z,83.64
2019-04-25T03:54:33.404Z,83.47
2019-04-25T03:55:32.141Z,83.88
2019-04-25T03:56:33.370Z,84.29
2019-04-25T03:57:33.132Z,84.91
2019-04-25T03:58:33.675Z,84.39
2019-04-25T03:59:33.546Z,84.29
2019-04-25T04:00:32.087Z,84.91
2019-04-25T04:01:32.114Z,85.38
2019-04-25T04:02:32.061Z,85.22
2019-04-25T04:03:33.811Z,85.42
2019-04-25T04:04:33.501Z,84.87
2019-04-25T04:05:32.036Z,85.11
2019-04-25T04:06:32.044Z,84.09
2019-04-25T04:07:33.612Z,83.88
2019-04-25T04:08:31.996Z,83.47
2019-04-25T04:09:33.688Z,84.19
2019-04-25T04:10:33.253Z,84.29
2019-04-25T04:11:33.661Z,83.88
2019-04-25T04:12:31.952Z,83.98
2019-04-25T04:13:31.936Z,83.58
2019-04-25T04:14:33.721Z,83.47
2019-04-25T04:15:33.437Z,83.27
2019-04-25T04:16:31.927Z,83.06
2019-04-25T04:17:31.899Z,83.13
2019-04-25T04:18:31.887Z,83.37
2019-04-25T04:19:31.870Z,83.27
2019-04-25T04:20:33.502Z,83.17
2019-04-25T04:21:33.276Z,83.17
2019-04-25T04:22:31.842Z,83.27
2019-04-25T04:23:33.227Z,83.06
2019-04-25T04:24:31.812Z,83.06
2019-04-25T04:25:33.537Z,82.96
2019-04-25T04:26:33.169Z,83.27
2019-04-25T04:27:31.784Z,83.58
2019-04-25T04:28:31.772Z,83.17
2019-04-25T04:29:33.123Z,83.47
2019-04-25T04:30:31.754Z,83.27
2019-04-25T04:31:33.476Z,81.73
2019-04-25T04:32:31.722Z,82.96
2019-04-25T04:33:32.896Z,83.06
2019-04-25T04:34:31.703Z,82.96
2019-04-25T04:35:33.394Z,83.06
2019-04-25T04:36:31.701Z,83.27
2019-04-25T04:37:33.185Z,81.94
2019-04-25T04:38:31.682Z,81.63
2019-04-25T04:39:31.651Z,82.55
2019-04-25T04:40:31.635Z,82.55
2019-04-25T04:41:31.654Z,82.14
2019-04-25T04:42:31.610Z,82.24
2019-04-25T04:43:31.603Z,82.24
2019-04-25T04:44:31.589Z,81.90
2019-04-25T04:45:31.583Z,81.49
2019-04-25T04:46:31.591Z,81.70
2019-04-25T04:47:33.277Z,81.59
2019-04-25T04:48:31.543Z,81.29
2019-04-25T04:49:31.535Z,81.08
2019-04-25T04:50:31.521Z,81.12
2019-04-25T04:51:31.533Z,81.29
2019-04-25T04:52:31.499Z,80.88
2019-04-25T04:53:31.488Z,80.57
2019-04-25T04:54:31.475Z,80.88
2019-04-25T04:55:31.464Z,80.88
2019-04-25T04:56:31.478Z,81.08
2019-04-25T04:57:35.582Z,80.88
2019-04-25T04:58:31.431Z,80.67
2019-04-25T04:59:31.419Z,80.26
2019-04-25T05:00:31.407Z,80.77
2019-04-25T05:01:31.420Z,80.57
2019-04-25T05:02:33.214Z,80.77
2019-04-25T05:03:31.396Z,81.08
2019-04-25T05:04:31.371Z,80.67
2019-04-25T05:05:31.351Z,80.67
2019-04-25T05:06:31.364Z,81.08
2019-04-25T05:07:31.330Z,80.77
2019-04-25T05:08:31.329Z,80.67
2019-04-25T05:09:31.329Z,80.98
2019-04-25T05:10:31.292Z,81.08
2019-04-25T05:11:31.319Z,81.08
2019-04-25T05:12:31.278Z,80.57
2019-04-25T05:13:31.264Z,80.43
2019-04-25T05:14:31.254Z,80.53
2019-04-25T05:15:31.250Z,80.67
2019-04-25T05:16:31.249Z,80.94
2019-04-25T05:17:31.220Z,81.04
2019-04-25T05:18:37.051Z,82.07
2019-04-25T05:19:33.551Z,80.98
2019-04-25T05:20:31.191Z,81.08
2019-04-25T05:21:31.209Z,80.74
2019-04-25T05:22:31.159Z,80.53
2019-04-25T05:23:31.153Z,80.26
2019-04-25T05:24:31.136Z,81.04
2019-04-25T05:25:31.131Z,80.98
2019-04-25T05:26:31.113Z,80.74
2019-04-25T05:27:37.660Z,80.74
2019-04-25T05:28:33.324Z,79.82
2019-04-25T05:29:31.078Z,80.02
2019-04-25T05:30:31.068Z,80.53
2019-04-25T05:31:31.062Z,80.63
2019-04-25T05:32:31.085Z,80.43
2019-04-25T05:33:31.041Z,79.82
2019-04-25T05:34:31.024Z,80.02
2019-04-25T05:35:31.021Z,79.82
2019-04-25T05:36:31.000Z,80.12
2019-04-25T05:37:31.014Z,79.61
2019-04-25T05:38:30.985Z,80.33
2019-04-25T05:39:30.967Z,80.02
2019-04-25T05:40:30.956Z,79.91
2019-04-25T05:41:30.944Z,79.41
2019-04-25T05:42:30.962Z,79.68
2019-04-25T05:43:30.922Z,79.27
2019-04-25T05:44:30.911Z,79.78
2019-04-25T05:45:30.923Z,79.37
2019-04-25T05:46:30.887Z,78.96
2019-04-25T05:47:30.899Z,79.57
2019-04-25T05:48:30.881Z,79.27
2019-04-25T05:49:30.853Z,79.06
2019-04-25T05:50:30.843Z,78.96
2019-04-25T05:51:30.842Z,78.65
2019-04-25T05:52:30.842Z,78.92
2019-04-25T05:53:30.808Z,79.02
2019-04-25T05:54:30.805Z,79.13
2019-04-25T05:55:30.786Z,77.90
2019-04-25T05:56:30.775Z,78.17
2019-04-25T05:57:44.696Z,78.17
2019-04-25T05:58:31.751Z,78.17
2019-04-25T05:59:30.740Z,76.84
2019-04-25T06:00:30.728Z,77.35
2019-04-25T06:01:30.725Z,76.64
2019-04-25T06:02:30.706Z,76.53
2019-04-25T06:03:30.718Z,76.74
2019-04-25T06:04:30.692Z,76.60
2019-04-25T06:05:30.673Z,76.81
2019-04-25T06:06:30.660Z,76.60
2019-04-25T06:07:30.648Z,76.70
2019-04-25T06:08:30.662Z,76.81
2019-04-25T06:09:30.637Z,76.50
2019-04-25T06:10:30.619Z,76.81
2019-04-25T06:11:30.619Z,76.50
2019-04-25T06:12:30.594Z,76.60
2019-04-25T06:13:30.606Z,76.09
2019-04-25T06:14:30.576Z,74.66
2019-04-25T06:15:30.563Z,75.44
2019-04-25T06:16:30.548Z,74.93
2019-04-25T06:17:30.536Z,75.44
2019-04-25T06:18:30.549Z,76.32
2019-04-25T06:19:30.526Z,75.44
2019-04-25T06:20:30.502Z,74.93
2019-04-25T06:21:30.492Z,74.79
2019-04-25T06:22:30.479Z,75.41
2019-04-25T06:23:30.493Z,74.59
2019-04-25T06:24:30.459Z,73.98
2019-04-25T06:25:34.783Z,74.69
2019-04-25T06:26:36.862Z,74.90
2019-04-25T06:27:31.427Z,74.45
2019-04-25T06:28:30.416Z,73.54
2019-04-25T06:29:30.424Z,74.35
2019-04-25T06:30:30.389Z,74.05
2019-04-25T06:31:30.378Z,73.94
2019-04-25T06:32:30.378Z,74.42
2019-04-25T06:33:30.414Z,73.84
2019-04-25T06:34:33.992Z,73.40
2019-04-25T06:35:30.336Z,72.99
2019-04-25T06:36:30.322Z,72.55
2019-04-25T06:37:30.310Z,72.79
2019-04-25T06:38:30.301Z,72.89
2019-04-25T06:39:30.311Z,72.89
2019-04-25T06:40:30.738Z,73.97
2019-04-25T06:41:30.264Z,72.96
2019-04-25T06:42:30.254Z,73.36
2019-04-25T06:43:30.251Z,73.06
2019-04-25T06:44:30.253Z,73.16
2019-04-25T06:45:30.251Z,72.96
2019-04-25T06:46:30.208Z,72.34
2019-04-25T06:47:30.197Z,73.16
2019-04-25T06:48:30.187Z,72.86
2019-04-25T06:49:30.197Z,73.16
2019-04-25T06:50:30.189Z,71.02
2019-04-25T06:51:30.155Z,71.84
2019-04-25T06:52:31.992Z,72.04
2019-04-25T06:53:30.547Z,71.23
2019-04-25T06:54:30.142Z,71.84
2019-04-25T06:55:30.270Z,70.31
2019-04-25T06:56:30.792Z,70.82
2019-04-25T06:57:30.486Z,70.61
2019-04-25T06:58:30.175Z,71.02
2019-04-25T06:59:30.175Z,69.80
2019-04-25T07:00:32.695Z,71.33
2019-04-25T07:01:31.051Z,69.49
2019-04-25T07:02:30.946Z,70.10
2019-04-25T07:03:30.036Z,69.90
2019-04-25T07:04:30.010Z,69.59
2019-04-25T07:05:37.455Z,70.21
2019-04-25T07:06:31.372Z,70.51
2019-04-25T07:07:29.972Z,70.51
2019-04-25T07:08:29.963Z,69.49
2019-04-25T07:09:31.169Z,70.48
2019-04-25T07:10:29.963Z,70.17
2019-04-25T07:11:30.470Z,69.15
2019-04-25T07:12:32.460Z,70.00
2019-04-25T07:13:30.490Z,69.87
2019-04-25T07:14:29.894Z,69.46
2019-04-25T07:15:29.904Z,69.87
2019-04-25T07:16:29.868Z,69.87
2019-04-25T07:17:30.565Z,70.14
2019-04-25T07:18:32.551Z,69.32
2019-04-25T07:19:29.973Z,69.53
2019-04-25T07:20:30.240Z,69.02
2019-04-25T07:21:30.268Z,67.60
2019-04-25T07:22:29.799Z,67.19
2019-04-25T07:23:29.859Z,68.21
2019-04-25T07:24:29.777Z,67.39
2019-04-25T07:25:30.302Z,68.01
2019-04-25T07:26:30.154Z,67.77
2019-04-25T07:27:30.551Z,68.58
2019-04-25T07:28:31.234Z,67.26
2019-04-25T07:29:30.498Z,67.87
2019-04-25T07:30:45.004Z,67.46
2019-04-25T07:31:30.836Z,69.09
2019-04-25T07:32:31.090Z,66.44
2019-04-25T07:33:29.675Z,67.63
2019-04-25T07:34:29.668Z,68.14
2019-04-25T07:35:29.669Z,68.14
2019-04-25T07:36:29.684Z,66.61
2019-04-25T07:37:29.847Z,66.89
2019-04-25T07:38:29.621Z,66.69
2019-04-25T07:39:29.621Z,66.18
2019-04-25T07:40:29.678Z,66.38
2019-04-25T07:41:29.617Z,65.26
2019-04-25T07:42:29.838Z,66.49
2019-04-25T07:43:29.635Z,65.47
2019-04-25T07:44:44.272Z,65.13
2019-04-25T07:45:30.840Z,65.54
2019-04-25T07:46:29.811Z,65.33
2019-04-25T07:47:29.587Z,65.84
2019-04-25T07:48:30.086Z,65.64
2019-04-25T07:49:30.250Z,65.64
2019-04-25T07:50:30.214Z,65.23
2019-04-25T07:51:30.345Z,64.62
2019-04-25T07:52:29.462Z,64.83
2019-04-25T07:53:30.701Z,64.93
2019-04-25T07:54:29.443Z,64.52
2019-04-25T07:55:29.427Z,63.71
2019-04-25T07:56:29.452Z,65.23
2019-04-25T07:57:29.408Z,65.23
2019-04-25T07:58:44.997Z,65.94
2019-04-25T07:59:30.993Z,65.64
2019-04-25T08:00:29.720Z,65.23
2019-04-25T08:01:29.396Z,64.83
2019-04-25T08:02:29.721Z,65.03
2019-04-25T08:03:30.032Z,65.64
2019-04-25T08:04:29.326Z,66.05
2019-04-25T08:05:29.576Z,65.13
2019-04-25T08:06:29.415Z,65.13
2019-04-25T08:07:29.650Z,65.20
2019-04-25T08:08:29.770Z,65.00
2019-04-25T08:09:29.542Z,66.12
2019-04-25T08:10:30.010Z,65.20
2019-04-25T08:11:29.875Z,66.02
2019-04-25T08:12:29.235Z,65.30
2019-04-25T08:13:30.034Z,63.98
2019-04-25T08:14:30.139Z,65.51
2019-04-25T08:15:29.965Z,65.10
2019-04-25T08:16:30.143Z,63.75
2019-04-25T08:17:29.180Z,63.55
2019-04-25T08:18:30.139Z,64.97
2019-04-25T08:19:29.634Z,65.27
2019-04-25T08:20:29.280Z,63.85
2019-04-25T08:21:29.803Z,64.97
2019-04-25T08:22:30.045Z,64.76
2019-04-25T08:23:32.002Z,65.04
2019-04-25T08:24:29.195Z,64.23
2019-04-25T08:25:29.375Z,64.91
2019-04-25T08:26:29.550Z,63.69
2019-04-25T08:27:29.086Z,63.89
2019-04-25T08:28:29.612Z,64.78
2019-04-25T08:29:29.041Z,64.88
2019-04-25T08:30:29.845Z,62.62
2019-04-25T08:31:29.020Z,63.43
2019-04-25T08:32:30.852Z,63.02
2019-04-25T08:33:29.852Z,62.59
2019-04-25T08:34:28.986Z,63.60
2019-04-25T08:35:29.968Z,62.69
2019-04-25T08:36:28.962Z,61.68
2019-04-25T08:37:30.309Z,61.88
2019-04-25T08:38:28.938Z,60.57
2019-04-25T08:39:30.295Z,61.68
2019-04-25T08:40:28.919Z,61.58
2019-04-25T08:41:28.906Z,60.77
2019-04-25T08:42:28.917Z,60.46
2019-04-25T08:43:28.891Z,59.85
2019-04-25T08:44:28.879Z,61.24
2019-04-25T08:45:28.861Z,60.84
2019-04-25T08:46:28.849Z,60.30
2019-04-25T08:47:28.861Z,59.80
2019-04-25T08:48:28.826Z,58.25
2019-04-25T08:49:28.815Z,59.23
2019-04-25T08:50:31.533Z,59.31
2019-04-25T08:51:31.399Z,59.81
2019-04-25T08:52:28.817Z,59.21
2019-04-25T08:53:28.769Z,59.11
2019-04-25T08:54:28.759Z,57.18
2019-04-25T08:55:28.748Z,57.89
2019-04-25T08:56:28.738Z,58.07
2019-04-25T08:57:28.725Z,57.97
2019-04-25T08:58:28.736Z,58.37
2019-04-25T08:59:36.042Z,57.87
2019-04-25T09:00:29.688Z,57.46
2019-04-25T09:01:28.679Z,55.34
2019-04-25T09:02:28.671Z,56.35
2019-04-25T09:03:28.682Z,55.04
2019-04-25T09:04:28.643Z,57.06
2019-04-25T09:05:28.676Z,58.27
2019-04-25T09:06:28.622Z,57.94
2019-04-25T09:07:28.611Z,57.76
2019-04-25T09:08:28.621Z,57.84
2019-04-25T09:09:28.587Z,56.85
2019-04-25T09:10:28.577Z,56.73
2019-04-25T09:11:28.566Z,57.26
2019-04-25T09:12:28.553Z,57.26
2019-04-25T09:13:28.567Z,57.16
2019-04-25T09:14:28.531Z,56.35
2019-04-25T09:15:28.521Z,55.57
2019-04-25T09:16:28.509Z,57.79
2019-04-25T09:17:28.500Z,57.29
2019-04-25T09:18:28.486Z,56.98
2019-04-25T09:19:28.497Z,58.50
2019-04-25T09:20:28.462Z,58.00
2019-04-25T09:21:28.458Z,57.89
2019-04-25T09:22:28.441Z,57.39
2019-04-25T09:23:28.429Z,57.59
2019-04-25T09:24:28.443Z,57.69
2019-04-25T09:25:28.406Z,58.20
2019-04-25T09:26:28.395Z,58.09
2019-04-25T09:27:28.383Z,57.29
2019-04-25T09:28:28.372Z,56.15
2019-04-25T09:29:28.383Z,57.26
2019-04-25T09:30:28.353Z,56.96
2019-04-25T09:31:28.339Z,56.45
2019-04-25T09:32:28.328Z,57.26
2019-04-25T09:33:28.318Z,56.12
2019-04-25T09:34:28.334Z,56.45
2019-04-25T09:35:28.306Z,55.24
2019-04-25T09:36:28.281Z,56.52
2019-04-25T09:37:28.279Z,55.52
2019-04-25T09:38:28.264Z,57.16
2019-04-25T09:39:28.275Z,57.34
2019-04-25T09:40:28.237Z,57.23
2019-04-25T09:41:28.226Z,57.03
2019-04-25T09:42:28.218Z,56.93
2019-04-25T09:43:28.204Z,55.32
2019-04-25T09:44:28.192Z,55.52
2019-04-25T09:45:28.205Z,54.41
2019-04-25T09:46:28.170Z,55.72
2019-04-25T09:47:28.157Z,55.62
2019-04-25T09:48:28.148Z,56.23
2019-04-25T09:49:28.136Z,56.93
2019-04-25T09:50:28.152Z,56.63
2019-04-25T09:51:28.115Z,55.62
2019-04-25T09:52:28.105Z,57.51
2019-04-25T09:53:28.093Z,57.91
2019-04-25T09:54:28.082Z,57.71
2019-04-25T09:55:28.092Z,55.06
2019-04-25T09:56:28.056Z,53.65
2019-04-25T09:57:28.050Z,54.33
2019-04-25T09:58:28.034Z,54.10
2019-04-25T09:59:30.064Z,52.49
2019-04-25T10:00:28.034Z,53.88
2019-04-25T10:01:28.001Z,53.34
2019-04-25T10:02:27.994Z,52.84
2019-04-25T10:03:27.977Z,51.81
2019-04-25T10:04:27.970Z,49.70
2019-04-25T10:05:27.955Z,51.49
2019-04-25T10:06:27.965Z,50.28
2019-04-25T10:07:27.931Z,50.76
2019-04-25T10:08:27.922Z,51.16
2019-04-25T10:09:27.909Z,47.94
2019-04-25T10:10:27.898Z,46.81
2019-04-25T10:11:27.910Z,48.02
2019-04-25T10:12:27.876Z,48.70
2019-04-25T10:13:27.863Z,48.60
2019-04-25T10:14:27.853Z,47.58
2019-04-25T10:15:27.841Z,47.38
2019-04-25T10:16:27.864Z,46.07
2019-04-25T10:17:27.819Z,45.17
2019-04-25T10:18:27.813Z,43.86
2019-04-25T10:19:27.797Z,46.77
2019-04-25T10:20:27.784Z,43.86
2019-04-25T10:21:27.801Z,46.77
2019-04-25T10:22:27.763Z,45.25
2019-04-25T10:23:27.752Z,45.54
2019-04-25T10:24:27.739Z,44.34
2019-04-25T10:25:27.728Z,45.42
2019-04-25T10:26:27.739Z,44.02
2019-04-25T10:27:27.707Z,46.33
2019-04-25T10:28:27.696Z,46.41
2019-04-25T10:29:39.307Z,46.70
2019-04-25T10:30:28.671Z,45.50
2019-04-25T10:31:27.685Z,45.48
2019-04-25T10:32:27.651Z,44.08
2019-04-25T10:33:27.677Z,42.19
2019-04-25T10:34:27.627Z,43.90
2019-04-25T10:35:27.619Z,42.69
2019-04-25T10:36:27.606Z,42.21
2019-04-25T10:37:27.615Z,43.70
2019-04-25T10:38:27.588Z,44.00
2019-04-25T10:39:27.665Z,45.00
2019-04-25T10:40:27.559Z,43.80
2019-04-25T10:41:27.558Z,44.10
2019-04-25T10:42:27.560Z,42.18
2019-04-25T10:43:27.525Z,42.88
2019-04-25T10:44:27.522Z,42.77
2019-04-25T10:45:27.505Z,43.08
2019-04-25T10:46:27.498Z,42.88
2019-04-25T10:47:27.509Z,40.17
2019-04-25T10:48:27.469Z,42.57
2019-04-25T10:49:27.460Z,42.25
2019-04-25T10:50:27.447Z,42.13
2019-04-25T10:51:27.436Z,41.74
2019-04-25T10:52:27.426Z,42.43
2019-04-25T10:53:27.436Z,40.53
2019-04-25T10:54:27.401Z,42.24
2019-04-25T10:55:27.393Z,41.71
2019-04-25T10:56:27.389Z,41.71
2019-04-25T10:57:27.371Z,40.41
2019-04-25T10:58:27.379Z,42.10
2019-04-25T10:59:27.349Z,41.67
2019-04-25T11:00:27.335Z,40.50
2019-04-25T11:01:27.322Z,39.78
2019-04-25T11:02:27.314Z,39.20
2019-04-25T11:03:27.323Z,40.09
2019-04-25T11:04:27.293Z,38.42
2019-04-25T11:05:27.278Z,38.73
2019-04-25T11:06:27.269Z,40.53
2019-04-25T11:07:27.267Z,40.83
2019-04-25T11:08:27.267Z,39.75
2019-04-25T11:09:27.235Z,38.93
2019-04-25T11:10:27.220Z,39.55
2019-04-25T11:11:27.212Z,39.75
2019-04-25T11:12:27.211Z,40.25
2019-04-25T11:13:27.210Z,41.07
2019-04-25T11:14:27.179Z,40.37
2019-04-25T11:15:27.165Z,41.77
2019-04-25T11:16:27.155Z,42.38
2019-04-25T11:17:27.147Z,42.18
2019-04-25T11:18:27.153Z,40.07
2019-04-25T11:19:27.120Z,41.88
2019-04-25T11:20:27.113Z,40.97
2019-04-25T11:21:27.103Z,41.05
2019-04-25T11:22:27.086Z,42.18
2019-04-25T11:23:27.098Z,42.27
2019-04-25T11:24:27.062Z,42.18
2019-04-25T11:25:27.050Z,42.47
2019-04-25T11:26:27.042Z,42.38
2019-04-25T11:27:27.029Z,39.95
2019-04-25T11:28:27.041Z,40.73
2019-04-25T11:29:27.005Z,39.85
2019-04-25T11:30:26.997Z,41.83
2019-04-25T11:31:26.984Z,40.83
2019-04-25T11:32:26.973Z,41.43
2019-04-25T11:33:27.013Z,40.13
2019-04-25T11:34:26.955Z,41.96
2019-04-25T11:35:26.939Z,40.25
2019-04-25T11:36:26.926Z,40.55
2019-04-25T11:37:26.917Z,41.75
2019-04-25T11:38:26.906Z,41.85
2019-04-25T11:39:26.917Z,42.05
2019-04-25T11:40:26.887Z,42.16
2019-04-25T11:41:26.870Z,41.75
2019-04-25T11:42:26.861Z,41.35
2019-04-25T11:43:26.850Z,41.17
2019-04-25T11:44:26.861Z,42.27
2019-04-25T11:45:26.827Z,42.27
2019-04-25T11:46:26.815Z,41.96
2019-04-25T11:47:26.803Z,42.25
2019-04-25T11:48:26.792Z,42.57
2019-04-25T11:49:26.810Z,43.08
2019-04-25T11:50:26.769Z,42.85
2019-04-25T11:51:26.759Z,43.05
2019-04-25T11:52:29.981Z,42.46
2019-04-25T11:53:26.736Z,42.25
2019-04-25T11:54:26.748Z,42.85
2019-04-25T11:55:26.717Z,42.25
2019-04-25T11:56:26.704Z,43.26
2019-04-25T11:57:26.692Z,42.46
2019-04-25T11:58:26.682Z,40.65
2019-04-25T11:59:26.693Z,40.65
2019-04-25T12:00:26.660Z,41.77
2019-04-25T12:01:26.648Z,42.27
2019-04-25T12:02:26.636Z,42.57
2019-04-25T12:03:26.624Z,42.18
2019-04-25T12:04:26.659Z,42.07
2019-04-25T12:05:26.602Z,41.77
2019-04-25T12:06:26.591Z,42.97
2019-04-25T12:07:26.580Z,41.69
2019-04-25T12:08:26.569Z,40.77
2019-04-25T12:09:26.582Z,42.27
2019-04-25T12:10:26.545Z,42.57
2019-04-25T12:11:26.535Z,42.57
2019-04-25T12:12:26.526Z,43.88
2019-04-25T12:13:26.534Z,42.97
2019-04-25T12:14:26.503Z,42.40
2019-04-25T12:15:26.516Z,42.49
2019-04-25T12:16:26.482Z,42.49
2019-04-25T12:17:26.476Z,41.69
2019-04-25T12:18:26.457Z,42.49
2019-04-25T12:19:35.074Z,42.60
2019-04-25T12:20:27.456Z,42.60
2019-04-25T12:21:26.424Z,42.69
2019-04-25T12:22:26.412Z,43.90
2019-04-25T12:23:26.402Z,43.60
2019-04-25T12:24:26.393Z,43.50
2019-04-25T12:25:26.402Z,42.80
2019-04-25T12:26:26.434Z,42.90
2019-04-25T12:27:26.360Z,42.80
2019-04-25T12:28:26.345Z,44.32
2019-04-25T12:29:26.335Z,44.30
2019-04-25T12:30:37.261Z,43.90
2019-04-25T12:31:27.309Z,41.69
2019-04-25T12:32:26.300Z,42.32
2019-04-25T12:33:26.290Z,42.90
2019-04-25T12:34:26.278Z,44.00
2019-04-25T12:35:26.291Z,44.80
2019-04-25T12:36:26.256Z,43.80
2019-04-25T12:37:26.245Z,41.79
2019-04-25T12:38:26.234Z,40.59
2019-04-25T12:39:26.222Z,41.69
2019-04-25T12:40:26.236Z,43.19
2019-04-25T12:41:26.200Z,43.10
2019-04-25T12:42:26.189Z,42.90
2019-04-25T12:43:26.178Z,42.49
2019-04-25T12:44:26.166Z,42.69
2019-04-25T12:45:26.185Z,42.69
2019-04-25T12:46:26.144Z,42.30
2019-04-25T12:47:26.133Z,41.99
2019-04-25T12:48:26.121Z,39.79
2019-04-25T12:49:26.110Z,41.88
2019-04-25T12:50:26.122Z,41.97
2019-04-25T12:51:26.088Z,42.77
2019-04-25T12:52:26.083Z,42.18